sensor_id;sensor_type;location;lat;lon;timestamp;P1;durP1;ratioP1;P2;durP2;ratioP2
15946;SDS011;8072;52.554;7.966;2023-12-20T00:01:54;7.10;;;2.00;;
15946;SDS011;8072;52.554;7.966;2023-12-20T00:04:20;12.40;;;1.97;;
15946;SDS011;8072;52.554;7.966;2023-12-20T00:06:45;7.40;;;2.10;;
15946;SDS011;8072;52.554;7.966;2023-12-20T00:09:11;6.57;;;1.90;;
15946;SDS011;8072;52.554;7.966;2023-12-20T00:11:38;8.43;;;2.20;;
15946;SDS011;8072;52.554;7.966;2023-12-20T00:14:04;9.80;;;2.20;;
15946;SDS011;8072;52.554;7.966;2023-12-20T00:16:30;4.40;;;2.07;;
15946;SDS011;8072;52.554;7.966;2023-12-20T00:18:56;8.27;;;2.50;;
15946;SDS011;8072;52.554;7.966;2023-12-20T00:21:22;7.10;;;2.00;;
15946;SDS011;8072;52.554;7.966;2023-12-20T00:23:48;7.93;;;2.20;;
15946;SDS011;8072;52.554;7.966;2023-12-20T00:26:14;5.23;;;2.77;;
15946;SDS011;8072;52.554;7.966;2023-12-20T00:28:40;4.40;;;2.13;;
15946;SDS011;8072;52.554;7.966;2023-12-20T00:31:08;5.47;;;2.30;;
15946;SDS011;8072;52.554;7.966;2023-12-20T00:33:33;7.87;;;2.23;;
15946;SDS011;8072;52.554;7.966;2023-12-20T00:35:59;6.77;;;2.10;;
15946;SDS011;8072;52.554;7.966;2023-12-20T00:38:25;9.77;;;2.60;;
15946;SDS011;8072;52.554;7.966;2023-12-20T00:40:51;10.30;;;2.53;;
15946;SDS011;8072;52.554;7.966;2023-12-20T00:43:16;8.03;;;2.20;;
15946;SDS011;8072;52.554;7.966;2023-12-20T00:45:42;9.73;;;2.27;;
15946;SDS011;8072;52.554;7.966;2023-12-20T00:48:08;7.80;;;2.40;;
15946;SDS011;8072;52.554;7.966;2023-12-20T00:50:33;4.07;;;2.20;;
15946;SDS011;8072;52.554;7.966;2023-12-20T00:53:00;9.13;;;2.00;;
15946;SDS011;8072;52.554;7.966;2023-12-20T00:55:27;5.73;;;2.27;;
15946;SDS011;8072;52.554;7.966;2023-12-20T00:57:52;7.67;;;2.00;;
15946;SDS011;8072;52.554;7.966;2023-12-20T01:00:19;12.23;;;2.37;;
15946;SDS011;8072;52.554;7.966;2023-12-20T01:02:44;7.10;;;2.37;;
15946;SDS011;8072;52.554;7.966;2023-12-20T01:05:14;10.97;;;2.60;;
15946;SDS011;8072;52.554;7.966;2023-12-20T01:07:40;4.97;;;2.07;;
15946;SDS011;8072;52.554;7.966;2023-12-20T01:10:07;6.20;;;2.13;;
15946;SDS011;8072;52.554;7.966;2023-12-20T01:12:33;8.93;;;3.13;;
15946;SDS011;8072;52.554;7.966;2023-12-20T01:14:59;10.23;;;2.40;;
15946;SDS011;8072;52.554;7.966;2023-12-20T01:17:25;7.93;;;2.13;;
15946;SDS011;8072;52.554;7.966;2023-12-20T01:19:50;9.80;;;2.70;;
15946;SDS011;8072;52.554;7.966;2023-12-20T01:22:16;8.67;;;2.40;;
15946;SDS011;8072;52.554;7.966;2023-12-20T01:24:42;7.53;;;2.40;;
15946;SDS011;8072;52.554;7.966;2023-12-20T01:27:07;15.33;;;2.90;;
15946;SDS011;8072;52.554;7.966;2023-12-20T01:29:33;9.50;;;2.37;;
15946;SDS011;8072;52.554;7.966;2023-12-20T01:31:59;8.53;;;1.97;;
15946;SDS011;8072;52.554;7.966;2023-12-20T01:34:25;5.37;;;3.00;;
15946;SDS011;8072;52.554;7.966;2023-12-20T01:36:50;3.80;;;2.13;;
15946;SDS011;8072;52.554;7.966;2023-12-20T01:39:16;6.40;;;2.77;;
15946;SDS011;8072;52.554;7.966;2023-12-20T01:41:43;7.70;;;2.50;;
15946;SDS011;8072;52.554;7.966;2023-12-20T01:44:10;6.53;;;2.10;;
15946;SDS011;8072;52.554;7.966;2023-12-20T01:46:36;5.33;;;2.30;;
15946;SDS011;8072;52.554;7.966;2023-12-20T01:49:02;11.00;;;2.70;;
15946;SDS011;8072;52.554;7.966;2023-12-20T01:51:28;10.37;;;2.50;;
15946;SDS011;8072;52.554;7.966;2023-12-20T01:53:55;8.33;;;2.87;;
15946;SDS011;8072;52.554;7.966;2023-12-20T01:56:23;6.23;;;2.33;;
15946;SDS011;8072;52.554;7.966;2023-12-20T01:58:49;9.43;;;2.83;;
15946;SDS011;8072;52.554;7.966;2023-12-20T02:01:15;8.00;;;2.87;;
15946;SDS011;8072;52.554;7.966;2023-12-20T02:03:41;9.73;;;3.00;;
15946;SDS011;8072;52.554;7.966;2023-12-20T02:06:07;8.40;;;3.13;;
15946;SDS011;8072;52.554;7.966;2023-12-20T02:08:34;11.13;;;2.93;;
15946;SDS011;8072;52.554;7.966;2023-12-20T02:11:01;10.63;;;3.40;;
15946;SDS011;8072;52.554;7.966;2023-12-20T02:13:27;9.37;;;3.20;;
15946;SDS011;8072;52.554;7.966;2023-12-20T02:15:53;8.63;;;3.47;;
15946;SDS011;8072;52.554;7.966;2023-12-20T02:18:20;12.60;;;2.97;;
15946;SDS011;8072;52.554;7.966;2023-12-20T02:20:46;10.40;;;3.07;;
15946;SDS011;8072;52.554;7.966;2023-12-20T02:23:12;8.00;;;3.23;;
15946;SDS011;8072;52.554;7.966;2023-12-20T02:25:37;5.40;;;3.13;;
15946;SDS011;8072;52.554;7.966;2023-12-20T02:28:03;10.23;;;3.47;;
15946;SDS011;8072;52.554;7.966;2023-12-20T02:30:30;11.67;;;3.17;;
15946;SDS011;8072;52.554;7.966;2023-12-20T02:32:56;7.03;;;3.03;;
15946;SDS011;8072;52.554;7.966;2023-12-20T02:35:22;9.07;;;3.40;;
15946;SDS011;8072;52.554;7.966;2023-12-20T02:37:48;13.87;;;3.00;;
15946;SDS011;8072;52.554;7.966;2023-12-20T02:40:13;12.50;;;3.37;;
15946;SDS011;8072;52.554;7.966;2023-12-20T02:42:39;11.10;;;3.77;;
15946;SDS011;8072;52.554;7.966;2023-12-20T02:45:05;9.03;;;3.30;;
15946;SDS011;8072;52.554;7.966;2023-12-20T02:47:31;7.33;;;3.20;;
15946;SDS011;8072;52.554;7.966;2023-12-20T02:49:57;10.90;;;3.40;;
15946;SDS011;8072;52.554;7.966;2023-12-20T02:52:23;9.80;;;3.37;;
15946;SDS011;8072;52.554;7.966;2023-12-20T02:54:49;8.73;;;3.00;;
15946;SDS011;8072;52.554;7.966;2023-12-20T02:57:15;10.50;;;3.30;;
15946;SDS011;8072;52.554;7.966;2023-12-20T02:59:41;9.47;;;2.77;;
15946;SDS011;8072;52.554;7.966;2023-12-20T03:02:07;13.23;;;3.47;;
15946;SDS011;8072;52.554;7.966;2023-12-20T03:04:33;13.73;;;3.97;;
15946;SDS011;8072;52.554;7.966;2023-12-20T03:06:59;9.50;;;3.00;;
15946;SDS011;8072;52.554;7.966;2023-12-20T03:09:26;11.63;;;3.30;;
15946;SDS011;8072;52.554;7.966;2023-12-20T03:11:51;9.70;;;3.07;;
15946;SDS011;8072;52.554;7.966;2023-12-20T03:14:17;14.87;;;3.00;;
15946;SDS011;8072;52.554;7.966;2023-12-20T03:16:48;7.07;;;2.70;;
15946;SDS011;8072;52.554;7.966;2023-12-20T03:19:16;13.57;;;3.10;;
15946;SDS011;8072;52.554;7.966;2023-12-20T03:21:43;8.33;;;3.27;;
15946;SDS011;8072;52.554;7.966;2023-12-20T03:24:09;10.53;;;3.40;;
15946;SDS011;8072;52.554;7.966;2023-12-20T03:26:35;12.37;;;3.07;;
15946;SDS011;8072;52.554;7.966;2023-12-20T03:29:02;10.90;;;3.80;;
15946;SDS011;8072;52.554;7.966;2023-12-20T03:31:28;12.60;;;3.50;;
15946;SDS011;8072;52.554;7.966;2023-12-20T03:33:54;9.97;;;3.37;;
15946;SDS011;8072;52.554;7.966;2023-12-20T03:36:20;14.90;;;3.20;;
15946;SDS011;8072;52.554;7.966;2023-12-20T03:38:45;11.67;;;3.30;;
15946;SDS011;8072;52.554;7.966;2023-12-20T03:41:11;12.53;;;3.47;;
15946;SDS011;8072;52.554;7.966;2023-12-20T03:43:37;7.83;;;3.10;;
15946;SDS011;8072;52.554;7.966;2023-12-20T03:46:03;12.63;;;3.43;;
15946;SDS011;8072;52.554;7.966;2023-12-20T03:48:29;11.13;;;2.80;;
15946;SDS011;8072;52.554;7.966;2023-12-20T03:50:58;8.90;;;3.37;;
15946;SDS011;8072;52.554;7.966;2023-12-20T03:53:24;13.63;;;3.70;;
15946;SDS011;8072;52.554;7.966;2023-12-20T03:55:50;15.40;;;3.67;;
15946;SDS011;8072;52.554;7.966;2023-12-20T03:58:16;12.37;;;3.70;;
15946;SDS011;8072;52.554;7.966;2023-12-20T04:00:42;14.50;;;3.80;;
15946;SDS011;8072;52.554;7.966;2023-12-20T04:03:07;8.83;;;2.90;;
15946;SDS011;8072;52.554;7.966;2023-12-20T04:05:33;12.00;;;3.27;;
15946;SDS011;8072;52.554;7.966;2023-12-20T04:08:01;11.10;;;3.67;;
15946;SDS011;8072;52.554;7.966;2023-12-20T04:10:28;13.57;;;3.87;;
15946;SDS011;8072;52.554;7.966;2023-12-20T04:12:54;11.27;;;4.00;;
15946;SDS011;8072;52.554;7.966;2023-12-20T04:15:20;11.77;;;3.53;;
15946;SDS011;8072;52.554;7.966;2023-12-20T04:17:46;15.83;;;4.17;;
15946;SDS011;8072;52.554;7.966;2023-12-20T04:20:11;14.97;;;3.30;;
15946;SDS011;8072;52.554;7.966;2023-12-20T04:22:37;15.07;;;3.80;;
15946;SDS011;8072;52.554;7.966;2023-12-20T04:25:03;10.17;;;3.53;;
15946;SDS011;8072;52.554;7.966;2023-12-20T04:27:30;14.30;;;3.83;;
15946;SDS011;8072;52.554;7.966;2023-12-20T04:29:56;10.63;;;3.70;;
15946;SDS011;8072;52.554;7.966;2023-12-20T04:32:22;15.47;;;3.87;;
15946;SDS011;8072;52.554;7.966;2023-12-20T04:34:47;13.80;;;3.87;;
15946;SDS011;8072;52.554;7.966;2023-12-20T04:37:15;16.23;;;3.83;;
15946;SDS011;8072;52.554;7.966;2023-12-20T04:39:41;12.33;;;4.67;;
15946;SDS011;8072;52.554;7.966;2023-12-20T04:42:07;17.00;;;4.13;;
15946;SDS011;8072;52.554;7.966;2023-12-20T04:44:33;17.87;;;4.17;;
15946;SDS011;8072;52.554;7.966;2023-12-20T04:46:59;22.53;;;4.90;;
15946;SDS011;8072;52.554;7.966;2023-12-20T04:49:25;15.23;;;4.03;;
15946;SDS011;8072;52.554;7.966;2023-12-20T04:51:51;24.53;;;4.70;;
15946;SDS011;8072;52.554;7.966;2023-12-20T04:54:17;14.70;;;4.07;;
15946;SDS011;8072;52.554;7.966;2023-12-20T04:56:45;8.47;;;3.60;;
15946;SDS011;8072;52.554;7.966;2023-12-20T04:59:11;14.00;;;3.63;;
15946;SDS011;8072;52.554;7.966;2023-12-20T05:01:36;13.87;;;4.57;;
15946;SDS011;8072;52.554;7.966;2023-12-20T05:04:03;16.43;;;4.10;;
15946;SDS011;8072;52.554;7.966;2023-12-20T05:06:29;12.70;;;4.33;;
15946;SDS011;8072;52.554;7.966;2023-12-20T05:08:56;15.70;;;4.00;;
15946;SDS011;8072;52.554;7.966;2023-12-20T05:11:21;16.27;;;4.00;;
15946;SDS011;8072;52.554;7.966;2023-12-20T05:13:47;15.27;;;4.80;;
15946;SDS011;8072;52.554;7.966;2023-12-20T05:16:13;10.57;;;3.83;;
15946;SDS011;8072;52.554;7.966;2023-12-20T05:18:43;12.17;;;3.63;;
15946;SDS011;8072;52.554;7.966;2023-12-20T05:21:10;17.23;;;4.23;;
15946;SDS011;8072;52.554;7.966;2023-12-20T05:23:36;14.00;;;3.73;;
15946;SDS011;8072;52.554;7.966;2023-12-20T05:26:02;18.73;;;3.90;;
15946;SDS011;8072;52.554;7.966;2023-12-20T05:28:28;19.63;;;4.27;;
15946;SDS011;8072;52.554;7.966;2023-12-20T05:30:54;15.40;;;4.60;;
15946;SDS011;8072;52.554;7.966;2023-12-20T05:33:19;22.53;;;4.20;;
15946;SDS011;8072;52.554;7.966;2023-12-20T05:35:46;13.83;;;3.97;;
15946;SDS011;8072;52.554;7.966;2023-12-20T05:38:11;14.40;;;3.87;;
15946;SDS011;8072;52.554;7.966;2023-12-20T05:40:37;12.90;;;3.67;;
15946;SDS011;8072;52.554;7.966;2023-12-20T05:43:03;15.27;;;3.63;;
15946;SDS011;8072;52.554;7.966;2023-12-20T05:45:29;19.70;;;4.37;;
15946;SDS011;8072;52.554;7.966;2023-12-20T05:47:55;15.67;;;4.03;;
15946;SDS011;8072;52.554;7.966;2023-12-20T05:50:31;19.97;;;3.93;;
15946;SDS011;8072;52.554;7.966;2023-12-20T05:52:58;15.20;;;3.50;;
15946;SDS011;8072;52.554;7.966;2023-12-20T05:55:23;15.20;;;4.27;;
15946;SDS011;8072;52.554;7.966;2023-12-20T05:57:49;21.43;;;4.27;;
15946;SDS011;8072;52.554;7.966;2023-12-20T06:00:15;15.87;;;4.13;;
15946;SDS011;8072;52.554;7.966;2023-12-20T06:02:43;15.50;;;3.83;;
15946;SDS011;8072;52.554;7.966;2023-12-20T06:05:09;16.00;;;3.60;;
15946;SDS011;8072;52.554;7.966;2023-12-20T06:07:35;21.60;;;4.43;;
15946;SDS011;8072;52.554;7.966;2023-12-20T06:10:00;11.63;;;3.93;;
15946;SDS011;8072;52.554;7.966;2023-12-20T06:12:26;10.57;;;4.10;;
15946;SDS011;8072;52.554;7.966;2023-12-20T06:14:53;18.00;;;3.87;;
15946;SDS011;8072;52.554;7.966;2023-12-20T06:17:19;10.73;;;3.67;;
15946;SDS011;8072;52.554;7.966;2023-12-20T06:19:45;15.27;;;3.87;;
15946;SDS011;8072;52.554;7.966;2023-12-20T06:22:13;23.80;;;4.77;;
15946;SDS011;8072;52.554;7.966;2023-12-20T06:24:40;14.43;;;3.80;;
15946;SDS011;8072;52.554;7.966;2023-12-20T06:27:05;13.73;;;3.20;;
15946;SDS011;8072;52.554;7.966;2023-12-20T06:29:31;18.83;;;4.10;;
15946;SDS011;8072;52.554;7.966;2023-12-20T06:31:57;18.10;;;3.73;;
15946;SDS011;8072;52.554;7.966;2023-12-20T06:34:23;15.37;;;3.73;;
15946;SDS011;8072;52.554;7.966;2023-12-20T06:36:48;17.47;;;4.37;;
15946;SDS011;8072;52.554;7.966;2023-12-20T06:39:14;15.63;;;3.40;;
15946;SDS011;8072;52.554;7.966;2023-12-20T06:41:40;26.03;;;4.03;;
15946;SDS011;8072;52.554;7.966;2023-12-20T06:44:06;20.83;;;5.20;;
15946;SDS011;8072;52.554;7.966;2023-12-20T06:46:31;21.97;;;4.00;;
15946;SDS011;8072;52.554;7.966;2023-12-20T06:48:57;20.93;;;4.10;;
15946;SDS011;8072;52.554;7.966;2023-12-20T06:51:23;15.43;;;3.93;;
15946;SDS011;8072;52.554;7.966;2023-12-20T06:53:51;16.73;;;3.37;;
15946;SDS011;8072;52.554;7.966;2023-12-20T06:56:17;15.67;;;3.53;;
15946;SDS011;8072;52.554;7.966;2023-12-20T06:58:43;17.90;;;3.93;;
15946;SDS011;8072;52.554;7.966;2023-12-20T07:01:13;13.83;;;4.00;;
15946;SDS011;8072;52.554;7.966;2023-12-20T07:03:40;22.47;;;3.60;;
15946;SDS011;8072;52.554;7.966;2023-12-20T07:06:06;22.20;;;4.70;;
15946;SDS011;8072;52.554;7.966;2023-12-20T07:08:31;15.07;;;3.57;;
15946;SDS011;8072;52.554;7.966;2023-12-20T07:10:57;19.60;;;4.03;;
15946;SDS011;8072;52.554;7.966;2023-12-20T07:13:23;25.63;;;4.90;;
15946;SDS011;8072;52.554;7.966;2023-12-20T07:15:49;12.90;;;3.93;;
15946;SDS011;8072;52.554;7.966;2023-12-20T07:18:15;19.40;;;3.77;;
15946;SDS011;8072;52.554;7.966;2023-12-20T07:20:41;17.07;;;3.90;;
15946;SDS011;8072;52.554;7.966;2023-12-20T07:23:08;18.00;;;4.27;;
15946;SDS011;8072;52.554;7.966;2023-12-20T07:25:34;15.60;;;3.50;;
15946;SDS011;8072;52.554;7.966;2023-12-20T07:28:00;19.33;;;4.03;;
15946;SDS011;8072;52.554;7.966;2023-12-20T07:30:25;21.30;;;4.07;;
15946;SDS011;8072;52.554;7.966;2023-12-20T07:32:52;13.93;;;4.20;;
15946;SDS011;8072;52.554;7.966;2023-12-20T07:35:18;17.37;;;4.10;;
15946;SDS011;8072;52.554;7.966;2023-12-20T07:37:44;16.47;;;4.07;;
15946;SDS011;8072;52.554;7.966;2023-12-20T07:40:10;19.17;;;3.70;;
15946;SDS011;8072;52.554;7.966;2023-12-20T07:42:36;22.33;;;4.10;;
15946;SDS011;8072;52.554;7.966;2023-12-20T07:45:02;13.57;;;4.13;;
15946;SDS011;8072;52.554;7.966;2023-12-20T07:47:28;16.50;;;4.13;;
15946;SDS011;8072;52.554;7.966;2023-12-20T07:49:54;21.40;;;4.10;;
15946;SDS011;8072;52.554;7.966;2023-12-20T07:52:20;15.73;;;3.73;;
15946;SDS011;8072;52.554;7.966;2023-12-20T07:54:47;16.13;;;4.03;;
15946;SDS011;8072;52.554;7.966;2023-12-20T07:57:13;16.93;;;3.80;;
15946;SDS011;8072;52.554;7.966;2023-12-20T07:59:39;14.63;;;3.60;;
15946;SDS011;8072;52.554;7.966;2023-12-20T08:02:05;19.87;;;3.97;;
15946;SDS011;8072;52.554;7.966;2023-12-20T08:04:31;12.53;;;3.30;;
15946;SDS011;8072;52.554;7.966;2023-12-20T08:06:57;19.30;;;3.40;;
15946;SDS011;8072;52.554;7.966;2023-12-20T08:09:23;12.50;;;4.53;;
15946;SDS011;8072;52.554;7.966;2023-12-20T08:11:49;16.60;;;3.87;;
15946;SDS011;8072;52.554;7.966;2023-12-20T08:14:15;19.67;;;3.63;;
15946;SDS011;8072;52.554;7.966;2023-12-20T08:16:41;21.03;;;3.60;;
15946;SDS011;8072;52.554;7.966;2023-12-20T08:19:06;16.37;;;3.77;;
15946;SDS011;8072;52.554;7.966;2023-12-20T08:21:32;10.30;;;3.33;;
15946;SDS011;8072;52.554;7.966;2023-12-20T08:23:58;17.13;;;3.43;;
15946;SDS011;8072;52.554;7.966;2023-12-20T08:26:25;16.80;;;3.63;;
15946;SDS011;8072;52.554;7.966;2023-12-20T08:28:51;11.57;;;3.70;;
15946;SDS011;8072;52.554;7.966;2023-12-20T08:31:18;17.73;;;3.37;;
15946;SDS011;8072;52.554;7.966;2023-12-20T08:33:45;19.33;;;3.57;;
15946;SDS011;8072;52.554;7.966;2023-12-20T08:36:12;15.00;;;3.27;;
15946;SDS011;8072;52.554;7.966;2023-12-20T08:38:39;17.60;;;3.60;;
15946;SDS011;8072;52.554;7.966;2023-12-20T08:41:05;13.67;;;3.40;;
15946;SDS011;8072;52.554;7.966;2023-12-20T08:43:31;15.77;;;3.40;;
15946;SDS011;8072;52.554;7.966;2023-12-20T08:45:59;19.30;;;4.03;;
15946;SDS011;8072;52.554;7.966;2023-12-20T08:48:24;13.73;;;3.30;;
15946;SDS011;8072;52.554;7.966;2023-12-20T08:50:50;17.97;;;4.03;;
15946;SDS011;8072;52.554;7.966;2023-12-20T08:53:17;16.20;;;3.67;;
15946;SDS011;8072;52.554;7.966;2023-12-20T08:55:44;18.33;;;3.40;;
15946;SDS011;8072;52.554;7.966;2023-12-20T08:58:12;28.70;;;4.13;;
15946;SDS011;8072;52.554;7.966;2023-12-20T09:00:38;13.87;;;3.20;;
15946;SDS011;8072;52.554;7.966;2023-12-20T09:03:04;20.17;;;3.80;;
15946;SDS011;8072;52.554;7.966;2023-12-20T09:05:29;16.47;;;3.60;;
15946;SDS011;8072;52.554;7.966;2023-12-20T09:07:55;16.83;;;4.03;;
15946;SDS011;8072;52.554;7.966;2023-12-20T09:10:21;12.33;;;3.87;;
15946;SDS011;8072;52.554;7.966;2023-12-20T09:12:51;16.57;;;4.03;;
15946;SDS011;8072;52.554;7.966;2023-12-20T09:15:21;19.50;;;3.73;;
15946;SDS011;8072;52.554;7.966;2023-12-20T09:17:51;16.60;;;3.97;;
15946;SDS011;8072;52.554;7.966;2023-12-20T09:20:17;17.23;;;3.50;;
15946;SDS011;8072;52.554;7.966;2023-12-20T09:22:43;15.17;;;2.73;;
15946;SDS011;8072;52.554;7.966;2023-12-20T09:25:09;17.20;;;3.50;;
15946;SDS011;8072;52.554;7.966;2023-12-20T09:27:36;11.67;;;3.37;;
15946;SDS011;8072;52.554;7.966;2023-12-20T09:30:02;15.47;;;3.13;;
15946;SDS011;8072;52.554;7.966;2023-12-20T09:32:31;15.43;;;3.30;;
15946;SDS011;8072;52.554;7.966;2023-12-20T09:34:57;17.57;;;3.70;;
15946;SDS011;8072;52.554;7.966;2023-12-20T09:37:25;18.77;;;3.77;;
15946;SDS011;8072;52.554;7.966;2023-12-20T09:39:51;18.83;;;3.80;;
15946;SDS011;8072;52.554;7.966;2023-12-20T09:42:21;14.53;;;3.77;;
15946;SDS011;8072;52.554;7.966;2023-12-20T09:44:51;16.80;;;3.47;;
15946;SDS011;8072;52.554;7.966;2023-12-20T09:47:16;13.43;;;3.40;;
15946;SDS011;8072;52.554;7.966;2023-12-20T09:49:54;9.17;;;2.90;;
15946;SDS011;8072;52.554;7.966;2023-12-20T09:52:22;17.03;;;3.50;;
15946;SDS011;8072;52.554;7.966;2023-12-20T09:54:49;13.83;;;3.87;;
15946;SDS011;8072;52.554;7.966;2023-12-20T09:57:17;15.37;;;3.00;;
15946;SDS011;8072;52.554;7.966;2023-12-20T09:59:43;8.87;;;2.57;;
15946;SDS011;8072;52.554;7.966;2023-12-20T10:02:10;9.57;;;3.43;;
15946;SDS011;8072;52.554;7.966;2023-12-20T10:04:41;15.63;;;3.60;;
15946;SDS011;8072;52.554;7.966;2023-12-20T10:07:12;12.60;;;3.10;;
15946;SDS011;8072;52.554;7.966;2023-12-20T10:09:39;10.50;;;3.13;;
15946;SDS011;8072;52.554;7.966;2023-12-20T10:12:07;10.47;;;3.07;;
15946;SDS011;8072;52.554;7.966;2023-12-20T10:14:38;15.93;;;3.70;;
15946;SDS011;8072;52.554;7.966;2023-12-20T10:17:06;16.10;;;3.47;;
15946;SDS011;8072;52.554;7.966;2023-12-20T10:19:32;16.00;;;4.40;;
15946;SDS011;8072;52.554;7.966;2023-12-20T10:22:00;10.83;;;3.57;;
15946;SDS011;8072;52.554;7.966;2023-12-20T10:24:29;16.87;;;2.97;;
15946;SDS011;8072;52.554;7.966;2023-12-20T10:27:02;23.10;;;4.60;;
15946;SDS011;8072;52.554;7.966;2023-12-20T10:29:32;19.40;;;3.50;;
15946;SDS011;8072;52.554;7.966;2023-12-20T10:32:22;20.67;;;4.10;;
15946;SDS011;8072;52.554;7.966;2023-12-20T10:34:50;10.17;;;3.17;;
15946;SDS011;8072;52.554;7.966;2023-12-20T10:37:16;20.40;;;3.63;;
15946;SDS011;8072;52.554;7.966;2023-12-20T10:39:43;19.77;;;3.53;;
15946;SDS011;8072;52.554;7.966;2023-12-20T10:42:09;17.57;;;3.90;;
15946;SDS011;8072;52.554;7.966;2023-12-20T10:44:37;18.07;;;4.40;;
15946;SDS011;8072;52.554;7.966;2023-12-20T10:47:05;17.93;;;3.70;;
15946;SDS011;8072;52.554;7.966;2023-12-20T10:49:32;15.97;;;3.30;;
15946;SDS011;8072;52.554;7.966;2023-12-20T10:52:01;14.30;;;4.10;;
15946;SDS011;8072;52.554;7.966;2023-12-20T10:54:29;18.00;;;4.30;;
15946;SDS011;8072;52.554;7.966;2023-12-20T10:56:55;5.33;;;1.87;;
15946;SDS011;8072;52.554;7.966;2023-12-20T10:59:23;3.00;;;1.23;;
15946;SDS011;8072;52.554;7.966;2023-12-20T11:01:50;7.43;;;1.40;;
15946;SDS011;8072;52.554;7.966;2023-12-20T11:04:22;4.93;;;1.60;;
15946;SDS011;8072;52.554;7.966;2023-12-20T11:10:03;3.97;;;1.40;;
15946;SDS011;8072;52.554;7.966;2023-12-20T11:16:02;5.33;;;1.60;;
15946;SDS011;8072;52.554;7.966;2023-12-20T11:18:31;5.30;;;1.70;;
15946;SDS011;8072;52.554;7.966;2023-12-20T11:21:01;9.53;;;1.60;;
15946;SDS011;8072;52.554;7.966;2023-12-20T11:23:29;3.90;;;1.40;;
15946;SDS011;8072;52.554;7.966;2023-12-20T11:25:56;4.93;;;1.40;;
15946;SDS011;8072;52.554;7.966;2023-12-20T11:28:25;4.50;;;1.57;;
15946;SDS011;8072;52.554;7.966;2023-12-20T11:33:21;7.87;;;1.87;;
15946;SDS011;8072;52.554;7.966;2023-12-20T11:35:47;2.53;;;1.47;;
15946;SDS011;8072;52.554;7.966;2023-12-20T11:38:14;4.50;;;1.80;;
15946;SDS011;8072;52.554;7.966;2023-12-20T11:40:41;7.27;;;1.70;;
15946;SDS011;8072;52.554;7.966;2023-12-20T11:43:08;7.63;;;1.77;;
15946;SDS011;8072;52.554;7.966;2023-12-20T11:45:34;5.27;;;1.70;;
15946;SDS011;8072;52.554;7.966;2023-12-20T11:48:00;5.70;;;1.30;;
15946;SDS011;8072;52.554;7.966;2023-12-20T11:50:27;4.20;;;1.30;;
15946;SDS011;8072;52.554;7.966;2023-12-20T11:52:54;5.53;;;2.03;;
15946;SDS011;8072;52.554;7.966;2023-12-20T11:55:24;7.20;;;1.93;;
15946;SDS011;8072;52.554;7.966;2023-12-20T11:57:50;7.10;;;1.53;;
15946;SDS011;8072;52.554;7.966;2023-12-20T12:00:17;4.77;;;1.57;;
15946;SDS011;8072;52.554;7.966;2023-12-20T12:02:56;3.90;;;1.50;;
15946;SDS011;8072;52.554;7.966;2023-12-20T12:05:28;4.60;;;1.53;;
15946;SDS011;8072;52.554;7.966;2023-12-20T12:07:56;9.73;;;1.57;;
15946;SDS011;8072;52.554;7.966;2023-12-20T12:10:22;3.47;;;1.20;;
15946;SDS011;8072;52.554;7.966;2023-12-20T12:12:48;6.80;;;1.43;;
15946;SDS011;8072;52.554;7.966;2023-12-20T12:15:14;5.97;;;1.73;;
15946;SDS011;8072;52.554;7.966;2023-12-20T12:17:40;7.03;;;1.70;;
15946;SDS011;8072;52.554;7.966;2023-12-20T12:20:06;5.60;;;1.70;;
15946;SDS011;8072;52.554;7.966;2023-12-20T12:22:35;5.50;;;1.53;;
15946;SDS011;8072;52.554;7.966;2023-12-20T12:25:11;5.43;;;1.80;;
15946;SDS011;8072;52.554;7.966;2023-12-20T12:27:41;5.40;;;1.60;;
15946;SDS011;8072;52.554;7.966;2023-12-20T12:30:08;3.40;;;1.60;;
15946;SDS011;8072;52.554;7.966;2023-12-20T12:32:35;6.07;;;1.67;;
15946;SDS011;8072;52.554;7.966;2023-12-20T12:35:06;8.87;;;2.17;;
15946;SDS011;8072;52.554;7.966;2023-12-20T12:37:34;5.67;;;1.40;;
15946;SDS011;8072;52.554;7.966;2023-12-20T12:40:16;4.77;;;1.60;;
15946;SDS011;8072;52.554;7.966;2023-12-20T12:42:43;4.87;;;1.57;;
15946;SDS011;8072;52.554;7.966;2023-12-20T12:45:10;11.37;;;2.03;;
15946;SDS011;8072;52.554;7.966;2023-12-20T12:47:39;3.83;;;1.70;;
15946;SDS011;8072;52.554;7.966;2023-12-20T12:50:05;6.07;;;1.70;;
15946;SDS011;8072;52.554;7.966;2023-12-20T12:52:33;7.97;;;2.00;;
15946;SDS011;8072;52.554;7.966;2023-12-20T12:55:00;5.10;;;1.80;;
15946;SDS011;8072;52.554;7.966;2023-12-20T12:57:28;8.40;;;1.50;;
15946;SDS011;8072;52.554;7.966;2023-12-20T12:59:54;4.87;;;2.40;;
15946;SDS011;8072;52.554;7.966;2023-12-20T13:02:21;6.77;;;1.73;;
15946;SDS011;8072;52.554;7.966;2023-12-20T13:04:48;7.60;;;1.97;;
15946;SDS011;8072;52.554;7.966;2023-12-20T13:07:14;8.80;;;2.00;;
15946;SDS011;8072;52.554;7.966;2023-12-20T13:09:40;10.50;;;1.53;;
15946;SDS011;8072;52.554;7.966;2023-12-20T13:12:06;7.13;;;2.00;;
15946;SDS011;8072;52.554;7.966;2023-12-20T13:14:33;6.93;;;1.70;;
15946;SDS011;8072;52.554;7.966;2023-12-20T13:17:00;8.07;;;1.93;;
15946;SDS011;8072;52.554;7.966;2023-12-20T13:19:26;8.90;;;1.70;;
15946;SDS011;8072;52.554;7.966;2023-12-20T13:21:53;8.63;;;1.73;;
15946;SDS011;8072;52.554;7.966;2023-12-20T13:24:18;7.33;;;1.97;;
15946;SDS011;8072;52.554;7.966;2023-12-20T13:26:44;7.80;;;1.90;;
15946;SDS011;8072;52.554;7.966;2023-12-20T13:29:10;6.47;;;1.70;;
15946;SDS011;8072;52.554;7.966;2023-12-20T13:31:37;7.87;;;2.13;;
15946;SDS011;8072;52.554;7.966;2023-12-20T13:34:03;10.03;;;2.17;;
15946;SDS011;8072;52.554;7.966;2023-12-20T13:36:29;7.80;;;2.33;;
15946;SDS011;8072;52.554;7.966;2023-12-20T13:38:55;6.63;;;1.60;;
15946;SDS011;8072;52.554;7.966;2023-12-20T13:41:21;8.70;;;2.10;;
15946;SDS011;8072;52.554;7.966;2023-12-20T13:43:46;6.67;;;2.03;;
15946;SDS011;8072;52.554;7.966;2023-12-20T13:46:13;8.30;;;1.87;;
15946;SDS011;8072;52.554;7.966;2023-12-20T13:48:40;6.13;;;2.13;;
15946;SDS011;8072;52.554;7.966;2023-12-20T13:51:06;6.83;;;1.83;;
15946;SDS011;8072;52.554;7.966;2023-12-20T13:53:32;9.23;;;2.17;;
15946;SDS011;8072;52.554;7.966;2023-12-20T13:55:58;8.97;;;1.97;;
15946;SDS011;8072;52.554;7.966;2023-12-20T13:58:25;7.77;;;1.77;;
15946;SDS011;8072;52.554;7.966;2023-12-20T14:00:51;8.90;;;1.70;;
15946;SDS011;8072;52.554;7.966;2023-12-20T14:03:17;4.30;;;1.57;;
15946;SDS011;8072;52.554;7.966;2023-12-20T14:05:42;6.53;;;1.50;;
15946;SDS011;8072;52.554;7.966;2023-12-20T14:08:08;7.03;;;1.50;;
15946;SDS011;8072;52.554;7.966;2023-12-20T14:10:35;5.83;;;1.63;;
15946;SDS011;8072;52.554;7.966;2023-12-20T14:13:03;7.77;;;1.53;;
15946;SDS011;8072;52.554;7.966;2023-12-20T14:15:30;3.13;;;1.57;;
15946;SDS011;8072;52.554;7.966;2023-12-20T14:18:02;7.93;;;1.80;;
15946;SDS011;8072;52.554;7.966;2023-12-20T14:20:31;7.43;;;1.50;;
15946;SDS011;8072;52.554;7.966;2023-12-20T14:22:59;6.97;;;1.60;;
15946;SDS011;8072;52.554;7.966;2023-12-20T14:25:25;4.93;;;1.20;;
15946;SDS011;8072;52.554;7.966;2023-12-20T14:27:51;3.13;;;1.50;;
15946;SDS011;8072;52.554;7.966;2023-12-20T14:30:17;7.53;;;1.93;;
15946;SDS011;8072;52.554;7.966;2023-12-20T14:32:43;7.57;;;1.70;;
15946;SDS011;8072;52.554;7.966;2023-12-20T14:35:09;5.90;;;1.50;;
15946;SDS011;8072;52.554;7.966;2023-12-20T14:37:35;7.30;;;1.50;;
15946;SDS011;8072;52.554;7.966;2023-12-20T14:40:09;6.73;;;1.87;;
15946;SDS011;8072;52.554;7.966;2023-12-20T14:42:40;8.40;;;1.90;;
15946;SDS011;8072;52.554;7.966;2023-12-20T14:45:07;4.73;;;1.83;;
15946;SDS011;8072;52.554;7.966;2023-12-20T14:47:33;7.60;;;1.90;;
15946;SDS011;8072;52.554;7.966;2023-12-20T14:49:59;6.70;;;1.87;;
15946;SDS011;8072;52.554;7.966;2023-12-20T14:52:25;4.40;;;1.50;;
15946;SDS011;8072;52.554;7.966;2023-12-20T14:54:50;3.37;;;1.67;;
15946;SDS011;8072;52.554;7.966;2023-12-20T14:57:16;5.77;;;1.40;;
15946;SDS011;8072;52.554;7.966;2023-12-20T14:59:43;6.83;;;1.97;;